Farrar, Iowa
Current Conditions -  °F | °C
As of 8:35 PM on Friday 28 Nov 2014 (Local Time) from KIKV Reporting Station
Clear Clear  
Wind Chill:   Ceiling: Unl
Heat Index:   Visibility: 10mi
Dew Point: -2°   Wind: 3mph
Humidity: 87%   Direction: 60°ENE
Pressure: 29.72"   Gusts: NA
Location:  41.8542°N, 93.4051°W
Report Text: KIKV 290235Z AUTO 06003KT 10SM CLR M00/M02 A2972 RMK AO2
Loading
Personal Weather Stations






























Interactive Weather Map New forecast layout! Learn more

10-Day Weather Forecast

Advertisements
Track Severe Weather on mobile